createdAt,value
2018-07-06T00:00:20.749Z,94.53
2018-07-06T00:01:01.237Z,94.43
2018-07-06T00:01:42.575Z,94.82
2018-07-06T00:02:23.162Z,94.72
2018-07-06T00:03:03.578Z,94.62
2018-07-06T00:03:44.113Z,94.72
2018-07-06T00:04:24.648Z,94.62
2018-07-06T00:05:05.083Z,94.43
2018-07-06T00:05:46.209Z,94.04
2018-07-06T00:06:26.757Z,94.43
2018-07-06T00:07:07.226Z,94.92
2018-07-06T00:07:47.693Z,95.01
2018-07-06T00:08:28.335Z,94.24
2018-07-06T00:09:08.828Z,94.38
2018-07-06T00:09:49.372Z,94.62
2018-07-06T00:10:30.733Z,94.72
2018-07-06T00:11:11.225Z,94.53
2018-07-06T00:11:51.713Z,94.72
2018-07-06T00:12:32.219Z,94.53
2018-07-06T00:13:12.750Z,94.62
2018-07-06T00:13:53.188Z,94.62
2018-07-06T00:14:33.790Z,94.24
2018-07-06T00:15:14.282Z,94.62
2018-07-06T00:15:55.308Z,95.16
2018-07-06T00:16:37.415Z,95.25
2018-07-06T00:17:17.939Z,94.92
2018-07-06T00:17:58.375Z,94.72
2018-07-06T00:18:39.705Z,94.38
2018-07-06T00:19:20.217Z,95.16
2018-07-06T00:20:00.697Z,95.25
2018-07-06T00:20:41.204Z,94.87
2018-07-06T00:21:21.725Z,95.2
2018-07-06T00:22:02.186Z,95.16
2018-07-06T00:22:42.672Z,95.01
2018-07-06T00:23:23.186Z,95.06
2018-07-06T00:24:03.647Z,95.06
2018-07-06T00:24:44.733Z,94.96
2018-07-06T00:25:25.197Z,95.25
2018-07-06T00:26:06.583Z,95.35
2018-07-06T00:26:47.159Z,95.2
2018-07-06T00:27:28.336Z,94.82
2018-07-06T00:28:08.802Z,95.2
2018-07-06T00:28:49.295Z,95.01
2018-07-06T00:29:29.801Z,95.3
2018-07-06T00:30:11.073Z,95.16
2018-07-06T00:30:51.600Z,95.2
2018-07-06T00:31:32.987Z,95.35
2018-07-06T00:32:13.401Z,95.54
2018-07-06T00:32:54.802Z,95.11
2018-07-06T00:33:36.005Z,95.06
2018-07-06T00:34:17.234Z,95.01
2018-07-06T00:34:57.732Z,94.77
2018-07-06T00:35:38.238Z,95.01
2018-07-06T00:36:20.251Z,95.2
2018-07-06T00:37:00.734Z,94.53
2018-07-06T00:37:41.817Z,95.16
2018-07-06T00:38:22.291Z,95.54
2018-07-06T00:39:02.765Z,95.16
2018-07-06T00:39:43.802Z,95.25
2018-07-06T00:40:24.306Z,95.35
2018-07-06T00:41:04.798Z,95.3
2018-07-06T00:41:45.360Z,95.25
2018-07-06T00:42:26.406Z,95.2
2018-07-06T00:43:06.940Z,94.92
2018-07-06T00:43:48.014Z,95.35
2018-07-06T00:44:28.584Z,94.87
2018-07-06T00:45:09.592Z,95.3
2018-07-06T00:45:50.108Z,95.25
2018-07-06T00:46:30.596Z,95.93
2018-07-06T00:47:11.083Z,95.45
2018-07-06T00:47:51.616Z,96.22
2018-07-06T00:48:32.159Z,95.74
2018-07-06T00:49:13.546Z,95.54
2018-07-06T00:49:53.989Z,95.93
2018-07-06T00:50:34.452Z,95.54
2018-07-06T00:51:14.939Z,95.74
2018-07-06T00:51:55.475Z,95.45
2018-07-06T00:52:36.732Z,95.64
2018-07-06T00:53:18.104Z,94.96
2018-07-06T00:53:59.314Z,95.54
2018-07-06T00:54:39.884Z,95.35
2018-07-06T00:55:20.936Z,95.74
2018-07-06T00:56:01.988Z,95.64
2018-07-06T00:56:43.370Z,96.41
2018-07-06T00:57:23.822Z,95.93
2018-07-06T00:58:04.311Z,95.93
2018-07-06T00:58:44.820Z,95.83
2018-07-06T00:59:25.316Z,96.7
2018-07-06T01:00:06.531Z,96.41
2018-07-06T01:00:47.016Z,96.41
2018-07-06T01:01:27.624Z,96.51
2018-07-06T01:02:08.057Z,96.51
2018-07-06T01:02:48.550Z,96.41
2018-07-06T01:03:29.013Z,96.89
2018-07-06T01:04:09.519Z,96.61
2018-07-06T01:04:50.070Z,96.51
2018-07-06T01:05:32.334Z,97.19
2018-07-06T01:06:12.824Z,97.47
2018-07-06T01:06:53.357Z,97.86
2018-07-06T01:07:33.836Z,98
2018-07-06T01:08:14.312Z,97.77
2018-07-06T01:08:54.798Z,97.96
2018-07-06T01:09:35.279Z,97.86
2018-07-06T01:10:16.853Z,97.38
2018-07-06T01:10:57.224Z,97.57
2018-07-06T01:11:38.507Z,97.09
2018-07-06T01:12:19.750Z,97.47
2018-07-06T01:13:00.279Z,97.86
2018-07-06T01:13:40.754Z,98.34
2018-07-06T01:14:21.242Z,98.05
2018-07-06T01:15:02.603Z,98.05
2018-07-06T01:15:43.093Z,97.77
2018-07-06T01:16:24.541Z,98.25
2018-07-06T01:17:05.019Z,97.77
2018-07-06T01:17:45.513Z,97.67
2018-07-06T01:18:26.032Z,98.25
2018-07-06T01:19:06.509Z,98.05
2018-07-06T01:19:47.005Z,98.05
2018-07-06T01:20:27.493Z,98.15
2018-07-06T01:21:08.013Z,97.77
2018-07-06T01:21:48.491Z,97.96
2018-07-06T01:22:29.598Z,97.57
2018-07-06T01:23:10.119Z,97.57
2018-07-06T01:23:50.603Z,97.96
2018-07-06T01:24:31.085Z,98.44
2018-07-06T01:25:11.627Z,97.86
2018-07-06T01:25:52.105Z,97.77
2018-07-06T01:26:32.565Z,98.83
2018-07-06T01:27:13.074Z,98.34
2018-07-06T01:27:53.554Z,97.96
2018-07-06T01:28:34.843Z,98.63
2018-07-06T01:29:15.352Z,98.15
2018-07-06T01:29:55.862Z,97.86
2018-07-06T01:30:36.388Z,98.05
2018-07-06T01:31:17.369Z,98.15
2018-07-06T01:31:57.844Z,98.05
2018-07-06T01:32:38.370Z,97.77
2018-07-06T01:33:18.833Z,97.86
2018-07-06T01:33:59.294Z,98.05
2018-07-06T01:34:39.834Z,98.34
2018-07-06T01:35:20.980Z,98.44
2018-07-06T01:36:03.101Z,98.63
2018-07-06T01:36:43.585Z,98.63
2018-07-06T01:37:24.089Z,99.4
2018-07-06T01:38:04.606Z,99.21
2018-07-06T01:38:45.099Z,98.92
2018-07-06T01:39:26.770Z,98.73
2018-07-06T01:40:08.160Z,98.73
2018-07-06T01:40:50.499Z,98.92
2018-07-06T01:41:31.012Z,98.54
2018-07-06T01:42:11.503Z,98.68
2018-07-06T01:42:52.002Z,99.07
2018-07-06T01:43:32.471Z,98.92
2018-07-06T01:44:12.985Z,98.92
2018-07-06T01:44:53.499Z,99.11
2018-07-06T01:45:33.975Z,99.02
2018-07-06T01:46:14.440Z,98.63
2018-07-06T01:46:54.922Z,98.73
2018-07-06T01:47:35.497Z,98.63
2018-07-06T01:48:15.960Z,98.83
2018-07-06T01:48:56.468Z,98.83
2018-07-06T01:49:37.001Z,98.83
2018-07-06T01:50:17.452Z,98.73
2018-07-06T01:50:57.958Z,98.34
2018-07-06T01:51:39.370Z,98.63
2018-07-06T01:52:19.836Z,98.63
2018-07-06T01:53:00.394Z,98.87
2018-07-06T01:53:40.836Z,99.02
2018-07-06T01:54:21.359Z,98.73
2018-07-06T01:55:01.851Z,99.11
2018-07-06T01:55:42.340Z,99.11
2018-07-06T01:56:23.772Z,99.21
2018-07-06T01:57:04.282Z,99.21
2018-07-06T01:57:44.792Z,99.31
2018-07-06T01:58:25.264Z,99.21
2018-07-06T01:59:05.734Z,98.58
2018-07-06T01:59:46.191Z,99.02
2018-07-06T02:00:26.695Z,98.73
2018-07-06T02:01:07.209Z,98.73
2018-07-06T02:01:48.626Z,98.83
2018-07-06T02:02:29.121Z,98.92
2018-07-06T02:03:09.614Z,99.11
2018-07-06T02:03:50.100Z,99.02
2018-07-06T02:04:30.591Z,99.4
2018-07-06T02:05:11.089Z,98.73
2018-07-06T02:05:51.586Z,98.63
2018-07-06T02:06:32.094Z,98.97
2018-07-06T02:07:13.349Z,99.55
2018-07-06T02:07:53.837Z,99.35
2018-07-06T02:08:34.367Z,99.45
2018-07-06T02:09:14.833Z,99.99
2018-07-06T02:09:55.335Z,99.93
2018-07-06T02:10:35.827Z,99.65
2018-07-06T02:11:16.358Z,99.99
2018-07-06T02:11:56.810Z,99.99
2018-07-06T02:12:38.140Z,99.99
2018-07-06T02:13:19.348Z,99.65
2018-07-06T02:13:59.864Z,99.99
2018-07-06T02:14:40.377Z,99.99
2018-07-06T02:15:20.889Z,99.99
2018-07-06T02:16:01.412Z,99.99
2018-07-06T02:16:42.359Z,99.99
2018-07-06T02:17:22.855Z,99.99
2018-07-06T02:18:04.306Z,99.99
2018-07-06T02:18:44.786Z,99.99
2018-07-06T02:19:25.328Z,99.99
2018-07-06T02:20:06.395Z,99.99
2018-07-06T02:20:46.914Z,99.99
2018-07-06T02:21:27.438Z,99.99
2018-07-06T02:22:08.667Z,99.99
2018-07-06T02:22:49.157Z,99.99
2018-07-06T02:23:29.627Z,99.99
2018-07-06T02:24:11.046Z,99.99
2018-07-06T02:24:51.550Z,99.99
2018-07-06T02:25:32.073Z,99.99
2018-07-06T02:26:12.573Z,99.99
2018-07-06T02:26:53.028Z,99.99
2018-07-06T02:27:33.500Z,99.99
2018-07-06T02:28:14.000Z,99.99
2018-07-06T02:28:54.509Z,99.99
2018-07-06T02:29:35.003Z,99.99
2018-07-06T02:30:15.458Z,99.99
2018-07-06T02:30:55.973Z,99.99
2018-07-06T02:31:36.494Z,99.99
2018-07-06T02:32:16.956Z,99.99
2018-07-06T02:32:57.466Z,99.99
2018-07-06T02:33:37.959Z,99.99
2018-07-06T02:34:18.514Z,99.99
2018-07-06T02:34:58.984Z,99.99
2018-07-06T02:35:39.461Z,99.99
2018-07-06T02:36:19.917Z,99.99
2018-07-06T02:37:00.444Z,99.99
2018-07-06T02:37:40.956Z,99.99
2018-07-06T02:38:21.955Z,99.99
2018-07-06T02:39:02.520Z,99.99
2018-07-06T02:39:43.013Z,99.99
2018-07-06T02:40:23.529Z,99.99
2018-07-06T02:41:03.999Z,99.99
2018-07-06T02:41:44.529Z,99.99
2018-07-06T02:42:25.018Z,99.99
2018-07-06T02:43:05.579Z,99.99
2018-07-06T02:43:46.661Z,99.99
2018-07-06T02:44:28.176Z,99.99
2018-07-06T02:45:08.775Z,99.99
2018-07-06T02:45:49.159Z,99.99
2018-07-06T02:46:29.700Z,99.99
2018-07-06T02:47:10.201Z,99.99
2018-07-06T02:47:50.693Z,99.99
2018-07-06T02:48:31.173Z,99.99
2018-07-06T02:49:11.744Z,99.99
2018-07-06T02:49:52.770Z,99.99
2018-07-06T02:50:33.303Z,99.99
2018-07-06T02:51:13.809Z,99.99
2018-07-06T02:51:54.307Z,99.99
2018-07-06T02:52:34.827Z,99.99
2018-07-06T02:53:15.342Z,99.99
2018-07-06T02:53:55.784Z,99.99
2018-07-06T02:54:36.285Z,99.99
2018-07-06T02:55:16.851Z,99.99
2018-07-06T02:55:58.002Z,99.99
2018-07-06T02:56:39.013Z,99.99
2018-07-06T02:57:20.325Z,99.99
2018-07-06T02:58:01.663Z,99.99
2018-07-06T02:58:42.145Z,99.99
2018-07-06T02:59:23.637Z,99.99
2018-07-06T03:00:04.140Z,99.99
2018-07-06T03:00:44.636Z,99.99
2018-07-06T03:01:25.693Z,99.99
2018-07-06T03:02:06.225Z,99.99
2018-07-06T03:02:46.742Z,99.99
2018-07-06T03:03:28.992Z,99.99
2018-07-06T03:04:09.497Z,99.99
2018-07-06T03:04:49.989Z,99.99
2018-07-06T03:05:30.478Z,99.99
2018-07-06T03:06:10.969Z,99.99
2018-07-06T03:06:52.501Z,99.99
2018-07-06T03:07:33.011Z,99.99
2018-07-06T03:08:13.490Z,99.99
2018-07-06T03:08:53.969Z,99.99
2018-07-06T03:09:36.303Z,99.99
2018-07-06T03:10:16.803Z,99.99
2018-07-06T03:10:57.287Z,99.99
2018-07-06T03:11:37.842Z,99.99
2018-07-06T03:12:18.297Z,99.99
2018-07-06T03:12:58.797Z,99.99
2018-07-06T03:13:39.906Z,99.99
2018-07-06T03:14:20.436Z,99.99
2018-07-06T03:15:00.918Z,99.99
2018-07-06T03:15:42.907Z,99.99
2018-07-06T03:16:23.422Z,99.99
2018-07-06T03:17:03.925Z,99.99
2018-07-06T03:17:44.404Z,99.99
2018-07-06T03:18:24.858Z,99.99
2018-07-06T03:19:05.448Z,99.99
2018-07-06T03:19:45.938Z,99.99
2018-07-06T03:20:26.439Z,99.99
2018-07-06T03:21:06.924Z,99.99
2018-07-06T03:21:47.418Z,99.99
2018-07-06T03:22:27.878Z,99.99
2018-07-06T03:23:08.389Z,99.99
2018-07-06T03:23:48.971Z,99.99
2018-07-06T03:24:29.452Z,99.99
2018-07-06T03:25:09.937Z,99.99
2018-07-06T03:25:50.431Z,99.99
2018-07-06T03:26:30.925Z,99.99
2018-07-06T03:27:11.439Z,99.99
2018-07-06T03:27:51.971Z,99.99
2018-07-06T03:28:32.573Z,99.99
2018-07-06T03:29:13.706Z,99.99
2018-07-06T03:29:54.238Z,99.99
2018-07-06T03:30:34.683Z,99.99
2018-07-06T03:31:15.185Z,99.99
2018-07-06T03:31:55.747Z,99.99
2018-07-06T03:32:36.192Z,99.99
2018-07-06T03:33:16.653Z,99.99
2018-07-06T03:33:57.143Z,99.99
2018-07-06T03:34:37.658Z,99.99
2018-07-06T03:35:18.855Z,99.99
2018-07-06T03:35:59.352Z,99.99
2018-07-06T03:36:39.838Z,99.99
2018-07-06T03:37:20.293Z,99.99
2018-07-06T03:38:00.780Z,99.99
2018-07-06T03:38:41.299Z,99.99
2018-07-06T03:39:22.362Z,99.99
2018-07-06T03:40:02.864Z,99.99
2018-07-06T03:40:43.372Z,99.99
2018-07-06T03:41:23.835Z,99.99
2018-07-06T03:42:04.311Z,99.99
2018-07-06T03:42:44.803Z,99.99
2018-07-06T03:43:25.376Z,99.99
2018-07-06T03:44:05.830Z,99.99
2018-07-06T03:44:46.330Z,99.99
2018-07-06T03:45:26.829Z,99.99
2018-07-06T03:46:07.313Z,99.99
2018-07-06T03:46:48.563Z,99.99
2018-07-06T03:47:29.021Z,99.99
2018-07-06T03:48:09.598Z,99.99
2018-07-06T03:48:50.055Z,99.99
2018-07-06T03:49:30.522Z,99.99
2018-07-06T03:50:11.008Z,99.99
2018-07-06T03:50:51.513Z,99.99
2018-07-06T03:51:32.017Z,99.99
2018-07-06T03:52:12.513Z,99.99
2018-07-06T03:52:53.012Z,99.99
2018-07-06T03:53:33.523Z,99.99
2018-07-06T03:54:14.034Z,99.99
2018-07-06T03:54:54.569Z,99.99
2018-07-06T03:55:35.056Z,99.99
2018-07-06T03:56:15.520Z,99.99
2018-07-06T03:56:56.129Z,99.99
2018-07-06T03:57:36.636Z,99.99
2018-07-06T03:58:17.118Z,99.99
2018-07-06T03:58:57.596Z,99.99
2018-07-06T03:59:38.128Z,99.99
2018-07-06T04:00:18.587Z,99.99
2018-07-06T04:00:59.136Z,99.99
2018-07-06T04:01:40.222Z,99.99
2018-07-06T04:02:20.717Z,99.99
2018-07-06T04:03:01.238Z,99.99
2018-07-06T04:03:41.738Z,99.99
2018-07-06T04:04:22.284Z,99.99
2018-07-06T04:05:02.802Z,99.99
2018-07-06T04:05:43.255Z,99.99
2018-07-06T04:06:23.747Z,99.99
2018-07-06T04:07:04.832Z,99.99
2018-07-06T04:07:45.397Z,99.99
2018-07-06T04:08:25.895Z,99.99
2018-07-06T04:09:07.252Z,99.99
2018-07-06T04:09:47.697Z,99.99
2018-07-06T04:10:28.927Z,99.99
2018-07-06T04:11:10.241Z,99.99
2018-07-06T04:11:50.732Z,99.99
2018-07-06T04:12:31.239Z,99.99
2018-07-06T04:13:11.729Z,99.99
2018-07-06T04:13:52.205Z,99.99
2018-07-06T04:14:32.723Z,99.99
2018-07-06T04:15:13.210Z,99.99
2018-07-06T04:15:54.543Z,99.99
2018-07-06T04:16:35.048Z,99.99
2018-07-06T04:17:15.568Z,99.99
2018-07-06T04:17:56.059Z,99.99
2018-07-06T04:18:36.541Z,99.99
2018-07-06T04:19:17.095Z,99.99
2018-07-06T04:19:57.571Z,99.99
2018-07-06T04:20:38.099Z,99.99
2018-07-06T04:21:18.618Z,99.99
2018-07-06T04:21:59.075Z,99.99
2018-07-06T04:22:39.562Z,99.99
2018-07-06T04:23:20.080Z,99.99
2018-07-06T04:24:00.559Z,99.99
2018-07-06T04:24:41.052Z,99.99
2018-07-06T04:25:22.338Z,99.99
2018-07-06T04:26:03.478Z,99.99
2018-07-06T04:26:43.923Z,99.99
2018-07-06T04:27:24.488Z,99.99
2018-07-06T04:28:04.929Z,99.99
2018-07-06T04:28:45.403Z,99.99
2018-07-06T04:29:25.900Z,99.99
2018-07-06T04:30:06.399Z,99.99
2018-07-06T04:30:46.875Z,99.99
2018-07-06T04:31:27.405Z,99.99
2018-07-06T04:32:07.922Z,99.99
2018-07-06T04:32:48.402Z,99.99
2018-07-06T04:33:28.898Z,99.99
2018-07-06T04:34:10.224Z,99.99
2018-07-06T04:34:50.729Z,99.99
2018-07-06T04:35:31.235Z,99.99
2018-07-06T04:36:11.739Z,99.99
2018-07-06T04:36:52.272Z,99.99
2018-07-06T04:37:32.756Z,99.99
2018-07-06T04:38:13.193Z,99.99
2018-07-06T04:38:53.706Z,99.99
2018-07-06T04:39:34.264Z,99.99
2018-07-06T04:40:14.767Z,99.99
2018-07-06T04:40:55.260Z,99.99
2018-07-06T04:41:35.740Z,99.99
2018-07-06T04:42:16.223Z,99.99
2018-07-06T04:42:56.699Z,99.99
2018-07-06T04:43:37.190Z,99.99
2018-07-06T04:44:18.243Z,99.99
2018-07-06T04:44:58.698Z,99.99
2018-07-06T04:45:40.056Z,99.99
2018-07-06T04:46:20.566Z,99.99
2018-07-06T04:47:01.076Z,99.99
2018-07-06T04:47:41.538Z,99.99
2018-07-06T04:48:22.105Z,99.99
2018-07-06T04:49:02.629Z,99.99
2018-07-06T04:49:43.700Z,99.99
2018-07-06T04:50:24.155Z,99.99
2018-07-06T04:51:04.713Z,99.99
2018-07-06T04:51:45.142Z,99.99
2018-07-06T04:52:25.701Z,99.99
2018-07-06T04:53:07.217Z,99.99
2018-07-06T04:53:47.682Z,99.99
2018-07-06T04:54:28.209Z,99.99
2018-07-06T04:55:08.720Z,99.99
2018-07-06T04:55:49.186Z,99.99
2018-07-06T04:56:29.798Z,99.99
2018-07-06T04:57:10.310Z,99.99
2018-07-06T04:57:50.859Z,99.99
2018-07-06T04:58:31.321Z,99.99
2018-07-06T04:59:11.853Z,99.99
2018-07-06T04:59:52.386Z,99.99
2018-07-06T05:00:32.801Z,99.99
2018-07-06T05:01:13.377Z,99.99
2018-07-06T05:01:53.896Z,99.99
2018-07-06T05:02:34.424Z,99.99
2018-07-06T05:03:14.950Z,99.99
2018-07-06T05:03:55.436Z,99.99
2018-07-06T05:04:36.891Z,99.99
2018-07-06T05:05:17.419Z,99.99
2018-07-06T05:05:57.909Z,99.99
2018-07-06T05:06:38.434Z,99.99
2018-07-06T05:07:18.902Z,99.99
2018-07-06T05:08:00.168Z,99.99
2018-07-06T05:08:40.651Z,99.99
2018-07-06T05:09:21.184Z,99.99
2018-07-06T05:10:01.720Z,99.99
2018-07-06T05:10:42.228Z,99.99
2018-07-06T05:11:22.711Z,99.99
2018-07-06T05:12:03.190Z,99.99
2018-07-06T05:12:43.681Z,99.99
2018-07-06T05:13:24.163Z,99.99
2018-07-06T05:14:04.685Z,99.99
2018-07-06T05:14:45.189Z,99.99
2018-07-06T05:15:25.703Z,99.99
2018-07-06T05:16:06.181Z,99.99
2018-07-06T05:16:46.792Z,99.99
2018-07-06T05:17:29.212Z,99.99
2018-07-06T05:18:09.694Z,99.99
2018-07-06T05:18:50.239Z,99.99
2018-07-06T05:19:30.769Z,99.99
2018-07-06T05:20:11.273Z,99.99
2018-07-06T05:20:51.800Z,99.99
2018-07-06T05:21:32.361Z,99.99
2018-07-06T05:22:12.909Z,99.99
2018-07-06T05:22:54.051Z,99.99
2018-07-06T05:23:35.185Z,99.99
2018-07-06T05:24:15.728Z,99.99
2018-07-06T05:24:56.204Z,99.99
2018-07-06T05:25:36.738Z,99.99
2018-07-06T05:26:17.961Z,99.99
2018-07-06T05:26:58.453Z,99.99
2018-07-06T05:27:38.942Z,99.99
2018-07-06T05:28:19.503Z,99.99
2018-07-06T05:28:59.976Z,99.99
2018-07-06T05:29:40.446Z,99.99
2018-07-06T05:30:21.235Z,99.99
2018-07-06T05:31:01.744Z,99.99
2018-07-06T05:31:42.426Z,99.99
2018-07-06T05:32:22.983Z,99.99
2018-07-06T05:33:03.509Z,99.99
2018-07-06T05:33:43.986Z,99.99
2018-07-06T05:34:24.461Z,99.99
2018-07-06T05:35:05.029Z,99.99
2018-07-06T05:35:45.631Z,99.99
2018-07-06T05:36:26.159Z,99.99
2018-07-06T05:37:07.490Z,99.99
2018-07-06T05:37:48.830Z,99.99
2018-07-06T05:38:30.200Z,99.99
2018-07-06T05:39:11.726Z,99.99
2018-07-06T05:39:52.215Z,99.99
2018-07-06T05:40:32.768Z,99.99
2018-07-06T05:41:13.403Z,99.99
2018-07-06T05:41:53.909Z,99.99
2018-07-06T05:42:34.427Z,99.99
2018-07-06T05:43:15.336Z,99.99
2018-07-06T05:43:55.834Z,99.99
2018-07-06T05:44:36.389Z,99.99
2018-07-06T05:45:16.882Z,99.99
2018-07-06T05:45:57.429Z,99.99
2018-07-06T05:46:37.955Z,99.99
2018-07-06T05:47:18.605Z,99.99
2018-07-06T05:47:59.803Z,99.99
2018-07-06T05:48:41.115Z,99.99
2018-07-06T05:49:21.659Z,99.99
2018-07-06T05:50:02.727Z,99.99
2018-07-06T05:50:43.412Z,99.99
2018-07-06T05:51:23.904Z,99.99
2018-07-06T05:52:04.569Z,99.99
2018-07-06T05:52:45.054Z,99.99
2018-07-06T05:53:25.561Z,99.99
2018-07-06T05:54:06.092Z,99.99
2018-07-06T05:54:46.585Z,99.99
2018-07-06T05:55:27.114Z,99.99
2018-07-06T05:56:07.611Z,99.99
2018-07-06T05:56:48.178Z,99.99
2018-07-06T05:57:28.617Z,99.99
2018-07-06T05:58:09.116Z,99.99
2018-07-06T05:58:49.608Z,99.99
2018-07-06T05:59:30.238Z,99.99
2018-07-06T06:00:10.785Z,99.99
2018-07-06T06:00:51.307Z,99.99
2018-07-06T06:01:31.755Z,99.99
2018-07-06T06:02:12.266Z,99.99
2018-07-06T06:02:52.773Z,99.99
2018-07-06T06:03:33.528Z,99.99
2018-07-06T06:04:14.186Z,99.99
2018-07-06T06:04:54.660Z,99.99
2018-07-06T06:05:35.454Z,99.99
2018-07-06T06:06:15.998Z,99.99
2018-07-06T06:06:56.560Z,99.99
2018-07-06T06:07:37.053Z,99.99
2018-07-06T06:08:17.575Z,99.99
2018-07-06T06:08:59.049Z,99.99
2018-07-06T06:09:39.572Z,99.99
2018-07-06T06:10:20.061Z,99.99
2018-07-06T06:11:00.584Z,99.99
2018-07-06T06:11:41.373Z,99.99
2018-07-06T06:12:21.925Z,99.99
2018-07-06T06:13:02.417Z,99.99
2018-07-06T06:13:43.975Z,99.99
2018-07-06T06:14:24.372Z,99.99
2018-07-06T06:15:04.855Z,99.99
2018-07-06T06:15:45.440Z,99.99
2018-07-06T06:16:25.939Z,99.99
2018-07-06T06:17:06.473Z,99.99
2018-07-06T06:17:48.660Z,99.99
2018-07-06T06:18:29.232Z,99.99
2018-07-06T06:19:10.331Z,99.99
2018-07-06T06:19:50.821Z,99.99
2018-07-06T06:20:31.348Z,99.99
2018-07-06T06:21:11.884Z,99.99
2018-07-06T06:21:52.438Z,99.99
2018-07-06T06:22:33.418Z,99.99
2018-07-06T06:23:13.917Z,99.99
2018-07-06T06:23:54.480Z,99.99
2018-07-06T06:24:34.995Z,99.99
2018-07-06T06:25:15.548Z,99.99
2018-07-06T06:25:56.040Z,99.99
2018-07-06T06:26:37.417Z,99.99
2018-07-06T06:27:17.919Z,99.99
2018-07-06T06:27:58.470Z,99.99
2018-07-06T06:28:38.895Z,99.99
2018-07-06T06:29:21.171Z,99.99
2018-07-06T06:30:02.984Z,99.99
2018-07-06T06:30:43.503Z,99.99
2018-07-06T06:31:23.991Z,99.99
2018-07-06T06:32:04.510Z,99.99
2018-07-06T06:32:45.002Z,99.99
2018-07-06T06:33:25.570Z,99.99
2018-07-06T06:34:06.035Z,98.3
2018-07-06T06:34:46.533Z,99.99
2018-07-06T06:35:26.989Z,97.67
2018-07-06T06:36:07.530Z,99.99
2018-07-06T06:36:48.052Z,95.15
2018-07-06T06:37:28.565Z,94.66
2018-07-06T06:38:09.006Z,98.73
2018-07-06T06:38:49.536Z,97.57
2018-07-06T06:39:30.066Z,99.99
2018-07-06T06:40:10.512Z,99.99
2018-07-06T06:40:51.002Z,99.17
2018-07-06T06:41:31.557Z,99.99
2018-07-06T06:42:12.056Z,99.99
2018-07-06T06:42:52.509Z,99.99
2018-07-06T06:43:33.044Z,99.46
2018-07-06T06:44:13.703Z,96.5
2018-07-06T06:44:55.160Z,97.96
2018-07-06T06:45:36.563Z,99.99
2018-07-06T06:46:17.097Z,99.99
2018-07-06T06:46:57.597Z,96.21
2018-07-06T06:47:39.081Z,99.99
2018-07-06T06:48:19.532Z,98.35
2018-07-06T06:49:00.023Z,99.99
2018-07-06T06:49:40.563Z,99.9
2018-07-06T06:50:21.058Z,99.99
2018-07-06T06:51:01.550Z,97.03
2018-07-06T06:51:42.077Z,99.99
2018-07-06T06:52:22.720Z,99.99
2018-07-06T06:53:03.124Z,99.41
2018-07-06T06:53:43.532Z,98.39
2018-07-06T06:54:24.056Z,96.36
2018-07-06T06:55:04.574Z,99.99
2018-07-06T06:55:45.075Z,99.99
2018-07-06T06:56:26.299Z,99.99
2018-07-06T06:57:07.745Z,99.99
2018-07-06T06:57:48.241Z,99.99
2018-07-06T06:58:28.720Z,99.8
2018-07-06T06:59:09.977Z,98.25
2018-07-06T06:59:50.516Z,99.8
2018-07-06T07:00:30.972Z,98.68
2018-07-06T07:01:11.521Z,95.48
2018-07-06T07:01:52.795Z,96.94
2018-07-06T07:02:33.282Z,94.71
2018-07-06T07:03:14.681Z,96.06
2018-07-06T07:03:55.176Z,92.67
2018-07-06T07:04:35.691Z,92.77
2018-07-06T07:05:16.157Z,95.34
2018-07-06T07:05:56.650Z,94.42
2018-07-06T07:06:37.249Z,92.43
2018-07-06T07:07:17.703Z,95.25
2018-07-06T07:07:58.210Z,93.74
2018-07-06T07:08:38.697Z,94.57
2018-07-06T07:09:19.188Z,97.86
2018-07-06T07:09:59.700Z,99.99
2018-07-06T07:10:40.169Z,99.99
2018-07-06T07:11:21.486Z,99.99
2018-07-06T07:12:01.953Z,99.99
2018-07-06T07:12:42.436Z,99.99
2018-07-06T07:13:22.963Z,99.99
2018-07-06T07:14:03.610Z,98
2018-07-06T07:14:44.059Z,97.03
2018-07-06T07:15:24.570Z,94.13
2018-07-06T07:16:05.063Z,94.61
2018-07-06T07:16:45.564Z,95.19
2018-07-06T07:17:26.897Z,96.16
2018-07-06T07:18:07.341Z,94.81
2018-07-06T07:18:47.833Z,95.43
2018-07-06T07:19:28.643Z,93.11
2018-07-06T07:20:08.858Z,98
2018-07-06T07:20:49.359Z,99.07
2018-07-06T07:21:29.964Z,98.97
2018-07-06T07:22:11.079Z,94.37
2018-07-06T07:22:51.609Z,93.4
2018-07-06T07:23:35.768Z,97.86
2018-07-06T07:24:16.248Z,96.16
2018-07-06T07:24:56.746Z,94.22
2018-07-06T07:25:37.199Z,98.15
2018-07-06T07:26:17.716Z,99.99
2018-07-06T07:26:59.044Z,99.6
2018-07-06T07:28:51.618Z,98.25
2018-07-06T07:29:32.144Z,99.99
2018-07-06T07:30:12.735Z,97.76
2018-07-06T07:30:53.168Z,97.56
2018-07-06T07:31:33.652Z,96.16
2018-07-06T07:32:14.157Z,97.03
2018-07-06T07:32:54.683Z,98
2018-07-06T07:33:35.987Z,96.16
2018-07-06T07:34:16.461Z,96.06
2018-07-06T07:34:57.472Z,94.85
2018-07-06T07:35:38.143Z,94.46
2018-07-06T07:36:18.623Z,91.16
2018-07-06T07:36:59.222Z,87.08
2018-07-06T07:37:39.621Z,88.39
2018-07-06T07:38:20.188Z,89.26
2018-07-06T07:39:00.735Z,90.48
2018-07-06T07:39:41.256Z,91.06
2018-07-06T07:40:21.689Z,92.47
2018-07-06T07:41:02.169Z,92.76
2018-07-06T07:41:42.676Z,93.63
2018-07-06T07:42:23.189Z,94.7
2018-07-06T07:43:03.782Z,92.61
2018-07-06T07:43:44.228Z,93.59
2018-07-06T07:44:24.761Z,93.83
2018-07-06T07:45:05.269Z,93.93
2018-07-06T07:45:45.747Z,93.59
2018-07-06T07:46:26.266Z,94.37
2018-07-06T07:47:06.788Z,94.42
2018-07-06T07:47:47.272Z,92.96
2018-07-06T07:48:28.538Z,92.86
2018-07-06T07:49:09.000Z,93.25
2018-07-06T07:49:49.506Z,94.22
2018-07-06T07:50:30.007Z,94.9
2018-07-06T07:51:11.560Z,96.36
2018-07-06T07:51:52.091Z,96.36
2018-07-06T07:52:32.538Z,93.44
2018-07-06T07:53:13.106Z,92.18
2018-07-06T07:53:53.722Z,92.08
2018-07-06T07:54:34.238Z,92.57
2018-07-06T07:55:14.669Z,95
2018-07-06T07:55:55.279Z,95.34
2018-07-06T07:56:35.820Z,96.89
2018-07-06T07:57:16.337Z,92.52
2018-07-06T07:57:56.978Z,96.21
2018-07-06T07:58:37.487Z,94.56
2018-07-06T07:59:18.053Z,97.71
2018-07-06T07:59:58.549Z,95.39
2018-07-06T08:00:39.170Z,91.79
2018-07-06T08:01:19.764Z,95.77
2018-07-06T08:02:00.130Z,97.23
2018-07-06T08:02:40.638Z,96.36
2018-07-06T08:03:21.113Z,91.41
2018-07-06T08:04:03.596Z,88.1
2018-07-06T08:04:44.108Z,92.76
2018-07-06T08:05:24.609Z,95.29
2018-07-06T08:06:05.101Z,89.56
2018-07-06T08:06:45.632Z,93.35
2018-07-06T08:07:26.117Z,91.79
2018-07-06T08:08:06.665Z,93.15
2018-07-06T08:08:47.131Z,89.66
2018-07-06T08:09:27.678Z,92.76
2018-07-06T08:10:08.157Z,93.01
2018-07-06T08:10:48.658Z,95.39
2018-07-06T08:11:29.150Z,94.9
2018-07-06T08:12:09.849Z,93.83
2018-07-06T08:12:50.403Z,95.57
2018-07-06T08:13:30.880Z,95.77
2018-07-06T08:14:11.374Z,97.28
2018-07-06T08:14:51.910Z,96.79
2018-07-06T08:15:33.184Z,97.76
2018-07-06T08:16:13.732Z,95.73
2018-07-06T08:16:54.228Z,96.31
2018-07-06T08:17:34.985Z,94.76
2018-07-06T08:18:15.497Z,93.59
2018-07-06T08:18:56.055Z,94.07
2018-07-06T08:19:36.633Z,94.56
2018-07-06T08:20:17.178Z,93.16
2018-07-06T08:20:57.728Z,93.26
2018-07-06T08:21:38.769Z,92.38
2018-07-06T08:22:19.322Z,93.3
2018-07-06T08:22:59.824Z,92.48
2018-07-06T08:23:40.726Z,93.16
2018-07-06T08:24:21.201Z,93.26
2018-07-06T08:25:01.737Z,92.29
2018-07-06T08:25:42.254Z,92.23
2018-07-06T08:26:22.818Z,92.47
2018-07-06T08:27:03.265Z,91.89
2018-07-06T08:27:43.747Z,91.31
2018-07-06T08:28:24.272Z,89.56
2018-07-06T08:29:05.852Z,88.05
2018-07-06T08:29:46.488Z,87.66
2018-07-06T08:30:26.987Z,87.76
2018-07-06T08:31:07.556Z,88.05
2018-07-06T08:31:48.150Z,87.86
2018-07-06T08:32:28.654Z,88.05
2018-07-06T08:33:09.182Z,86.79
2018-07-06T08:33:49.718Z,87.96
2018-07-06T08:34:30.163Z,87.18
2018-07-06T08:35:10.689Z,87.57
2018-07-06T08:35:51.245Z,89.03
2018-07-06T08:36:33.599Z,88.34
2018-07-06T08:37:13.909Z,87.03
2018-07-06T08:37:54.430Z,87.07
2018-07-06T08:38:34.920Z,87.03
2018-07-06T08:39:16.085Z,87.03
2018-07-06T08:39:56.697Z,86.54
2018-07-06T08:40:37.214Z,86.05
2018-07-06T08:41:17.581Z,86.64
2018-07-06T08:41:58.137Z,86.68
2018-07-06T08:42:38.618Z,85.77
2018-07-06T08:43:19.076Z,84.21
2018-07-06T08:43:59.642Z,80.71
2018-07-06T08:44:40.098Z,81.01
2018-07-06T08:45:21.489Z,79.88